Time,TemperatureF,DewpointF,PressureIn,WindDirection,WindDirectionDegrees,WindSpeedMPH,WindSpeedGustMPH,Humidity,HourlyPrecipIn,Conditions,Clouds,dailyrainin,SolarRadiationWatts/m^2,SoftwareType,DateUTC
2013-08-01 00:00:00,57.0,56.0,-100.00,West,270,1.0,-999.0,97,-99.99,,,-99.99,0.000000,,2013-08-01 05:00:00,
2013-08-01 00:43:00,57.0,56.0,-100.00,West,270,1.0,-999.0,97,-99.99,,,-99.99,0.000000,,2013-08-01 05:43:00,
2013-08-01 00:53:00,57.0,56.0,-100.00,West,270,1.0,-999.0,97,-99.99,,,-99.99,0.000000,,2013-08-01 05:53:00,
2013-08-01 01:00:00,56.0,56.0,-100.00,West,270,1.0,-999.0,99,-99.99,,,-99.99,0.000000,,2013-08-01 06:00:00,
2013-08-01 01:33:00,56.0,56.0,-100.00,West,270,1.0,-999.0,99,-99.99,,,-99.99,0.000000,,2013-08-01 06:33:00,
2013-08-01 01:43:00,56.0,56.0,-100.00,West,270,1.0,-999.0,99,-99.99,,,-99.99,0.000000,,2013-08-01 06:43:00,
2013-08-01 01:53:00,56.0,56.0,-100.00,West,270,1.0,-999.0,99,-99.99,,,-99.99,0.000000,,2013-08-01 06:53:00,
2013-08-01 02:00:00,58.0,57.0,-100.00,West,270,3.0,-999.0,96,-99.99,,,-99.99,0.000000,,2013-08-01 07:00:00,
2013-08-01 02:43:00,58.0,57.0,-100.00,West,270,3.0,-999.0,96,-99.99,,,-99.99,0.000000,,2013-08-01 07:43:00,
2013-08-01 02:55:00,58.0,57.0,-100.00,West,270,3.0,-999.0,96,-99.99,,,-99.99,0.000000,,2013-08-01 07:55:00,
2013-08-01 04:00:00,59.0,56.0,-100.00,WNW,292,3.0,-999.0,89,-99.99,,,-99.99,0.000000,,2013-08-01 09:00:00,
2013-08-01 04:49:00,59.0,56.0,-100.00,WNW,292,3.0,-999.0,89,-99.99,,,-99.99,0.000000,,2013-08-01 09:49:00,
2013-08-01 05:00:00,58.0,55.0,-100.00,NW,315,3.0,-999.0,89,-99.99,,,-99.99,0.000000,,2013-08-01 10:00:00,
2013-08-01 06:00:00,58.0,55.0,-100.00,NW,315,2.0,-999.0,89,-99.99,,,-99.99,6.960000,,2013-08-01 11:00:00,
2013-08-01 06:50:00,58.0,55.0,-100.00,NW,315,2.0,-999.0,89,-99.99,,,-99.99,6.960000,,2013-08-01 11:50:00,
2013-08-01 08:00:00,61.0,56.0,-100.00,NW,315,5.0,-999.0,85,-99.99,,,-99.99,192.559998,,2013-08-01 13:00:00,
2013-08-01 08:56:00,61.0,56.0,-100.00,NW,315,5.0,-999.0,85,-99.99,,,-99.99,192.559998,,2013-08-01 13:56:00,
2013-08-01 11:00:00,67.0,58.0,-100.00,WNW,292,7.0,-999.0,71,-99.99,,,-99.99,620.599976,,2013-08-01 16:00:00,
2013-08-01 11:45:00,67.0,58.0,-100.00,WNW,292,7.0,-999.0,71,-99.99,,,-99.99,620.599976,,2013-08-01 16:45:00,
2013-08-01 11:53:00,67.0,58.0,-100.00,WNW,292,7.0,-999.0,71,-99.99,,,-99.99,620.599976,,2013-08-01 16:53:00,
2013-08-01 12:00:00,69.0,58.0,-100.00,West,270,8.0,-999.0,68,-99.99,,,-99.99,780.679993,,2013-08-01 17:00:00,
2013-08-01 12:50:00,69.0,58.0,-100.00,West,270,8.0,-999.0,68,-99.99,,,-99.99,780.679993,,2013-08-01 17:50:00,
2013-08-01 12:59:00,69.0,58.0,-100.00,West,270,8.0,-999.0,68,-99.99,,,-99.99,780.679993,,2013-08-01 17:59:00,
2013-08-01 13:00:00,71.0,58.0,-100.00,West,270,8.0,-999.0,65,-99.99,,,-99.99,816.640015,,2013-08-01 18:00:00,
2013-08-01 13:49:00,71.0,58.0,-100.00,West,270,8.0,-999.0,65,-99.99,,,-99.99,816.640015,,2013-08-01 18:49:00,
2013-08-01 13:55:00,71.0,58.0,-100.00,West,270,8.0,-999.0,65,-99.99,,,-99.99,816.640015,,2013-08-01 18:55:00,
2013-08-01 14:00:00,72.0,58.0,-100.00,West,270,7.0,-999.0,60,-99.99,,,-99.99,816.640015,,2013-08-01 19:00:00,
2013-08-01 14:45:00,72.0,58.0,-100.00,West,270,7.0,-999.0,60,-99.99,,,-99.99,816.640015,,2013-08-01 19:45:00,
2013-08-01 15:00:00,71.0,55.0,-100.00,WSW,247,5.0,-999.0,57,-99.99,,,-99.99,373.519989,,2013-08-01 20:00:00,
2013-08-01 15:58:00,71.0,55.0,-100.00,WSW,247,5.0,-999.0,57,-99.99,,,-99.99,373.519989,,2013-08-01 20:58:00,
2013-08-01 16:00:00,70.0,57.0,-100.00,WSW,247,5.0,-999.0,65,-99.99,,,-99.99,422.239990,,2013-08-01 21:00:00,
2013-08-01 16:43:00,70.0,57.0,-100.00,WSW,247,5.0,-999.0,65,-99.99,,,-99.99,422.239990,,2013-08-01 21:43:00,
2013-08-01 16:53:00,70.0,57.0,-100.00,WSW,247,5.0,-999.0,65,-99.99,,,-99.99,422.239990,,2013-08-01 21:53:00,
2013-08-01 17:48:00,72.0,56.0,-100.00,WNW,292,4.0,-999.0,56,-99.99,,,-99.99,424.559998,,2013-08-01 22:48:00,
2013-08-01 17:59:00,72.0,56.0,-100.00,WNW,292,4.0,-999.0,56,-99.99,,,-99.99,424.559998,,2013-08-01 22:59:00,
2013-08-01 18:00:00,72.0,56.0,-100.00,West,270,3.0,-999.0,56,-99.99,,,-99.99,254.039993,,2013-08-01 23:00:00,
2013-08-01 18:52:00,72.0,56.0,-100.00,West,270,3.0,-999.0,56,-99.99,,,-99.99,254.039993,,2013-08-01 23:52:00,
2013-08-01 19:00:00,70.0,56.0,-100.00,WSW,247,3.0,-999.0,62,-99.99,,,-99.99,133.399994,,2013-08-02 00:00:00,
2013-08-01 20:00:00,65.0,58.0,-100.00,SW,225,3.0,-999.0,76,-99.99,,,-99.99,49.880001,,2013-08-02 01:00:00,
2013-08-01 20:49:00,65.0,58.0,-100.00,SW,225,3.0,-999.0,76,-99.99,,,-99.99,49.880001,,2013-08-02 01:49:00,
2013-08-01 21:00:00,61.0,57.0,-100.00,SW,225,1.0,-999.0,87,-99.99,,,-99.99,2.320000,,2013-08-02 02:00:00,
2013-08-01 21:37:00,61.0,57.0,-100.00,SW,225,1.0,-999.0,87,-99.99,,,-99.99,2.320000,,2013-08-02 02:37:00,
2013-08-01 21:45:00,61.0,57.0,-100.00,SW,225,1.0,-999.0,87,-99.99,,,-99.99,2.320000,,2013-08-02 02:45:00,
2013-08-01 21:54:00,61.0,57.0,-100.00,SW,225,1.0,-999.0,87,-99.99,,,-99.99,2.320000,,2013-08-02 02:54:00,
2013-08-01 22:00:00,61.0,56.0,-100.00,WSW,247,1.0,-999.0,86,-99.99,,,-99.99,0.000000,,2013-08-02 03:00:00,